sensor_id;sensor_type;location;lat;lon;timestamp;P1;durP1;ratioP1;P2;durP2;ratioP2
47804;SDS011;33568;45.286;9.900;2023-07-20T00:00:09;8.88;;;5.55;;
47804;SDS011;33568;45.286;9.900;2023-07-20T00:02:39;9.95;;;4.90;;
47804;SDS011;33568;45.286;9.900;2023-07-20T00:05:06;7.85;;;4.65;;
47804;SDS011;33568;45.286;9.900;2023-07-20T00:07:32;9.32;;;5.53;;
47804;SDS011;33568;45.286;9.900;2023-07-20T00:09:59;8.38;;;4.45;;
47804;SDS011;33568;45.286;9.900;2023-07-20T00:12:26;5.72;;;4.53;;
47804;SDS011;33568;45.286;9.900;2023-07-20T00:14:52;9.82;;;4.20;;
47804;SDS011;33568;45.286;9.900;2023-07-20T00:17:19;8.38;;;5.60;;
47804;SDS011;33568;45.286;9.900;2023-07-20T00:19:46;8.40;;;5.40;;
47804;SDS011;33568;45.286;9.900;2023-07-20T00:22:13;9.50;;;5.60;;
47804;SDS011;33568;45.286;9.900;2023-07-20T00:24:39;6.80;;;4.85;;
47804;SDS011;33568;45.286;9.900;2023-07-20T00:27:06;8.45;;;4.35;;
47804;SDS011;33568;45.286;9.900;2023-07-20T00:29:32;6.72;;;4.43;;
47804;SDS011;33568;45.286;9.900;2023-07-20T00:31:59;7.03;;;4.45;;
47804;SDS011;33568;45.286;9.900;2023-07-20T00:34:25;12.52;;;5.07;;
47804;SDS011;33568;45.286;9.900;2023-07-20T00:36:53;5.90;;;4.18;;
47804;SDS011;33568;45.286;9.900;2023-07-20T00:39:20;7.43;;;4.85;;
47804;SDS011;33568;45.286;9.900;2023-07-20T00:41:46;8.40;;;3.75;;
47804;SDS011;33568;45.286;9.900;2023-07-20T00:44:13;7.45;;;4.40;;
47804;SDS011;33568;45.286;9.900;2023-07-20T00:46:39;7.38;;;4.75;;
47804;SDS011;33568;45.286;9.900;2023-07-20T00:49:07;9.50;;;4.72;;
47804;SDS011;33568;45.286;9.900;2023-07-20T00:51:34;10.13;;;5.05;;
47804;SDS011;33568;45.286;9.900;2023-07-20T00:54:01;5.43;;;4.15;;
47804;SDS011;33568;45.286;9.900;2023-07-20T00:56:28;8.02;;;4.10;;
47804;SDS011;33568;45.286;9.900;2023-07-20T00:58:55;7.47;;;3.97;;
47804;SDS011;33568;45.286;9.900;2023-07-20T01:01:22;7.88;;;5.50;;
47804;SDS011;33568;45.286;9.900;2023-07-20T01:03:49;7.20;;;4.50;;
47804;SDS011;33568;45.286;9.900;2023-07-20T01:11:57;8.10;;;4.60;;
47804;SDS011;33568;45.286;9.900;2023-07-20T01:14:34;9.05;;;4.60;;
47804;SDS011;33568;45.286;9.900;2023-07-20T01:17:01;7.50;;;4.10;;
47804;SDS011;33568;45.286;9.900;2023-07-20T01:19:29;6.88;;;4.22;;
47804;SDS011;33568;45.286;9.900;2023-07-20T01:21:59;9.90;;;5.00;;
47804;SDS011;33568;45.286;9.900;2023-07-20T01:32:52;6.55;;;4.32;;
47804;SDS011;33568;45.286;9.900;2023-07-20T01:35:23;8.50;;;4.75;;
47804;SDS011;33568;45.286;9.900;2023-07-20T01:37:54;13.00;;;5.10;;
47804;SDS011;33568;45.286;9.900;2023-07-20T01:40:24;11.45;;;6.38;;
47804;SDS011;33568;45.286;9.900;2023-07-20T01:42:52;7.75;;;5.10;;
47804;SDS011;33568;45.286;9.900;2023-07-20T01:45:19;7.47;;;4.70;;
47804;SDS011;33568;45.286;9.900;2023-07-20T01:47:45;7.45;;;4.50;;
47804;SDS011;33568;45.286;9.900;2023-07-20T01:50:12;5.90;;;4.57;;
47804;SDS011;33568;45.286;9.900;2023-07-20T01:52:39;8.02;;;4.95;;
47804;SDS011;33568;45.286;9.900;2023-07-20T01:55:05;9.52;;;6.13;;
47804;SDS011;33568;45.286;9.900;2023-07-20T01:57:32;7.95;;;4.93;;
47804;SDS011;33568;45.286;9.900;2023-07-20T01:59:59;7.38;;;5.10;;
47804;SDS011;33568;45.286;9.900;2023-07-20T02:02:26;5.90;;;4.75;;
47804;SDS011;33568;45.286;9.900;2023-07-20T02:04:54;8.63;;;4.45;;
47804;SDS011;33568;45.286;9.900;2023-07-20T02:07:20;10.70;;;4.68;;
47804;SDS011;33568;45.286;9.900;2023-07-20T02:09:47;6.47;;;5.10;;
47804;SDS011;33568;45.286;9.900;2023-07-20T02:12:14;9.32;;;6.10;;
47804;SDS011;33568;45.286;9.900;2023-07-20T02:14:40;8.95;;;5.28;;
47804;SDS011;33568;45.286;9.900;2023-07-20T02:17:06;8.25;;;5.47;;
47804;SDS011;33568;45.286;9.900;2023-07-20T02:19:36;7.95;;;5.38;;
47804;SDS011;33568;45.286;9.900;2023-07-20T02:22:04;7.32;;;5.05;;
47804;SDS011;33568;45.286;9.900;2023-07-20T02:24:33;11.45;;;5.68;;
47804;SDS011;33568;45.286;9.900;2023-07-20T02:27:00;8.30;;;4.15;;
47804;SDS011;33568;45.286;9.900;2023-07-20T02:29:26;9.52;;;4.85;;
47804;SDS011;33568;45.286;9.900;2023-07-20T02:31:53;6.60;;;5.25;;
47804;SDS011;33568;45.286;9.900;2023-07-20T02:34:20;8.65;;;5.82;;
47804;SDS011;33568;45.286;9.900;2023-07-20T02:36:46;9.80;;;6.22;;
47804;SDS011;33568;45.286;9.900;2023-07-20T02:39:14;12.25;;;5.47;;
47804;SDS011;33568;45.286;9.900;2023-07-20T02:41:40;8.13;;;5.38;;
47804;SDS011;33568;45.286;9.900;2023-07-20T02:44:07;7.43;;;4.97;;
47804;SDS011;33568;45.286;9.900;2023-07-20T02:46:34;10.05;;;6.07;;
47804;SDS011;33568;45.286;9.900;2023-07-20T02:49:01;8.30;;;6.07;;
47804;SDS011;33568;45.286;9.900;2023-07-20T02:51:27;7.97;;;5.20;;
47804;SDS011;33568;45.286;9.900;2023-07-20T02:53:54;7.88;;;6.05;;
47804;SDS011;33568;45.286;9.900;2023-07-20T02:56:20;7.93;;;5.80;;
47804;SDS011;33568;45.286;9.900;2023-07-20T02:58:48;10.38;;;5.70;;
47804;SDS011;33568;45.286;9.900;2023-07-20T03:01:15;8.85;;;5.93;;
47804;SDS011;33568;45.286;9.900;2023-07-20T03:03:42;11.55;;;5.13;;
47804;SDS011;33568;45.286;9.900;2023-07-20T03:06:15;6.85;;;5.05;;
47804;SDS011;33568;45.286;9.900;2023-07-20T03:08:42;6.90;;;4.43;;
47804;SDS011;33568;45.286;9.900;2023-07-20T03:11:11;8.35;;;5.35;;
47804;SDS011;33568;45.286;9.900;2023-07-20T03:13:39;7.60;;;4.47;;
47804;SDS011;33568;45.286;9.900;2023-07-20T03:16:05;10.38;;;5.13;;
47804;SDS011;33568;45.286;9.900;2023-07-20T03:18:38;5.63;;;4.55;;
47804;SDS011;33568;45.286;9.900;2023-07-20T03:21:05;6.55;;;4.60;;
47804;SDS011;33568;45.286;9.900;2023-07-20T03:23:33;8.18;;;4.75;;
47804;SDS011;33568;45.286;9.900;2023-07-20T03:26:02;5.70;;;4.43;;
47804;SDS011;33568;45.286;9.900;2023-07-20T03:28:31;6.65;;;4.53;;
47804;SDS011;33568;45.286;9.900;2023-07-20T03:30:57;6.95;;;4.45;;
47804;SDS011;33568;45.286;9.900;2023-07-20T03:33:26;7.78;;;4.25;;
47804;SDS011;33568;45.286;9.900;2023-07-20T03:35:56;6.13;;;4.20;;
47804;SDS011;33568;45.286;9.900;2023-07-20T03:38:24;6.53;;;4.05;;
47804;SDS011;33568;45.286;9.900;2023-07-20T03:40:58;5.55;;;3.90;;
47804;SDS011;33568;45.286;9.900;2023-07-20T03:43:26;5.82;;;3.90;;
47804;SDS011;33568;45.286;9.900;2023-07-20T03:45:54;6.28;;;4.75;;
47804;SDS011;33568;45.286;9.900;2023-07-20T03:48:22;11.13;;;7.63;;
47804;SDS011;33568;45.286;9.900;2023-07-20T03:50:50;9.27;;;7.40;;
47804;SDS011;33568;45.286;9.900;2023-07-20T03:53:18;8.70;;;6.38;;
47804;SDS011;33568;45.286;9.900;2023-07-20T03:55:49;9.38;;;6.80;;
47804;SDS011;33568;45.286;9.900;2023-07-20T03:58:17;9.23;;;6.80;;
47804;SDS011;33568;45.286;9.900;2023-07-20T04:00:48;15.18;;;7.95;;
47804;SDS011;33568;45.286;9.900;2023-07-20T04:03:20;11.57;;;7.35;;
47804;SDS011;33568;45.286;9.900;2023-07-20T04:05:48;9.40;;;7.70;;
47804;SDS011;33568;45.286;9.900;2023-07-20T04:08:15;10.35;;;7.90;;
47804;SDS011;33568;45.286;9.900;2023-07-20T04:10:45;14.07;;;9.32;;
47804;SDS011;33568;45.286;9.900;2023-07-20T04:13:11;11.23;;;7.03;;
47804;SDS011;33568;45.286;9.900;2023-07-20T04:15:38;13.70;;;7.75;;
47804;SDS011;33568;45.286;9.900;2023-07-20T04:18:04;10.15;;;6.78;;
47804;SDS011;33568;45.286;9.900;2023-07-20T04:20:31;9.43;;;7.07;;
47804;SDS011;33568;45.286;9.900;2023-07-20T04:22:58;8.93;;;7.20;;
47804;SDS011;33568;45.286;9.900;2023-07-20T04:25:25;11.82;;;8.07;;
47804;SDS011;33568;45.286;9.900;2023-07-20T04:27:51;14.15;;;9.50;;
47804;SDS011;33568;45.286;9.900;2023-07-20T04:30:21;14.30;;;8.65;;
47804;SDS011;33568;45.286;9.900;2023-07-20T04:32:48;11.60;;;8.48;;
47804;SDS011;33568;45.286;9.900;2023-07-20T04:35:18;12.27;;;7.68;;
47804;SDS011;33568;45.286;9.900;2023-07-20T04:38:06;12.75;;;7.82;;
47804;SDS011;33568;45.286;9.900;2023-07-20T04:40:33;11.35;;;6.88;;
47804;SDS011;33568;45.286;9.900;2023-07-20T04:43:00;10.25;;;6.43;;
47804;SDS011;33568;45.286;9.900;2023-07-20T04:45:26;14.02;;;6.45;;
47804;SDS011;33568;45.286;9.900;2023-07-20T04:47:53;8.75;;;6.03;;
47804;SDS011;33568;45.286;9.900;2023-07-20T04:50:20;8.43;;;5.40;;
47804;SDS011;33568;45.286;9.900;2023-07-20T04:52:46;13.48;;;7.68;;
47804;SDS011;33568;45.286;9.900;2023-07-20T04:55:18;9.90;;;7.03;;
47804;SDS011;33568;45.286;9.900;2023-07-20T04:57:44;12.23;;;7.78;;
47804;SDS011;33568;45.286;9.900;2023-07-20T05:00:11;15.57;;;6.45;;
47804;SDS011;33568;45.286;9.900;2023-07-20T05:02:40;11.80;;;6.43;;
47804;SDS011;33568;45.286;9.900;2023-07-20T05:05:06;12.95;;;6.88;;
47804;SDS011;33568;45.286;9.900;2023-07-20T05:07:34;14.20;;;7.38;;
47804;SDS011;33568;45.286;9.900;2023-07-20T05:10:01;16.05;;;7.47;;
47804;SDS011;33568;45.286;9.900;2023-07-20T05:12:28;11.65;;;6.90;;
47804;SDS011;33568;45.286;9.900;2023-07-20T05:14:58;12.68;;;6.30;;
47804;SDS011;33568;45.286;9.900;2023-07-20T05:17:24;13.20;;;6.57;;
47804;SDS011;33568;45.286;9.900;2023-07-20T05:19:52;16.02;;;7.70;;
47804;SDS011;33568;45.286;9.900;2023-07-20T05:22:18;15.40;;;6.82;;
47804;SDS011;33568;45.286;9.900;2023-07-20T05:24:45;18.35;;;5.50;;
47804;SDS011;33568;45.286;9.900;2023-07-20T05:27:11;23.67;;;6.53;;
47804;SDS011;33568;45.286;9.900;2023-07-20T05:29:42;14.73;;;6.80;;
47804;SDS011;33568;45.286;9.900;2023-07-20T05:32:10;10.75;;;7.60;;
47804;SDS011;33568;45.286;9.900;2023-07-20T05:34:37;10.80;;;6.60;;
47804;SDS011;33568;45.286;9.900;2023-07-20T05:37:04;10.60;;;6.97;;
47804;SDS011;33568;45.286;9.900;2023-07-20T05:39:32;12.05;;;6.20;;
47804;SDS011;33568;45.286;9.900;2023-07-20T05:41:58;10.65;;;6.65;;
47804;SDS011;33568;45.286;9.900;2023-07-20T05:44:25;7.53;;;6.80;;
47804;SDS011;33568;45.286;9.900;2023-07-20T05:46:51;13.57;;;7.80;;
47804;SDS011;33568;45.286;9.900;2023-07-20T05:49:18;13.93;;;6.40;;
47804;SDS011;33568;45.286;9.900;2023-07-20T05:51:44;7.85;;;6.05;;
47804;SDS011;33568;45.286;9.900;2023-07-20T05:54:12;8.88;;;5.57;;
47804;SDS011;33568;45.286;9.900;2023-07-20T05:56:39;9.40;;;5.18;;
47804;SDS011;33568;45.286;9.900;2023-07-20T05:59:05;8.55;;;5.00;;
47804;SDS011;33568;45.286;9.900;2023-07-20T06:01:32;9.02;;;4.65;;
47804;SDS011;33568;45.286;9.900;2023-07-20T06:03:58;9.77;;;5.20;;
47804;SDS011;33568;45.286;9.900;2023-07-20T06:06:25;9.85;;;5.10;;
47804;SDS011;33568;45.286;9.900;2023-07-20T06:08:51;5.70;;;4.90;;
47804;SDS011;33568;45.286;9.900;2023-07-20T06:11:18;10.63;;;6.18;;
47804;SDS011;33568;45.286;9.900;2023-07-20T06:13:44;14.82;;;6.93;;
47804;SDS011;33568;45.286;9.900;2023-07-20T06:16:11;10.75;;;6.75;;
47804;SDS011;33568;45.286;9.900;2023-07-20T06:18:37;7.63;;;4.90;;
47804;SDS011;33568;45.286;9.900;2023-07-20T06:21:04;9.10;;;5.35;;
47804;SDS011;33568;45.286;9.900;2023-07-20T06:23:30;12.77;;;5.63;;
47804;SDS011;33568;45.286;9.900;2023-07-20T06:25:57;15.93;;;5.22;;
47804;SDS011;33568;45.286;9.900;2023-07-20T06:28:23;22.60;;;5.85;;
47804;SDS011;33568;45.286;9.900;2023-07-20T06:30:50;12.18;;;6.72;;
47804;SDS011;33568;45.286;9.900;2023-07-20T06:33:17;11.38;;;5.88;;
47804;SDS011;33568;45.286;9.900;2023-07-20T06:35:43;15.02;;;6.07;;
47804;SDS011;33568;45.286;9.900;2023-07-20T06:38:10;9.40;;;5.93;;
47804;SDS011;33568;45.286;9.900;2023-07-20T06:40:36;7.93;;;6.25;;
47804;SDS011;33568;45.286;9.900;2023-07-20T06:43:03;10.00;;;5.28;;
47804;SDS011;33568;45.286;9.900;2023-07-20T06:45:29;9.35;;;5.20;;
47804;SDS011;33568;45.286;9.900;2023-07-20T06:47:56;12.05;;;5.78;;
47804;SDS011;33568;45.286;9.900;2023-07-20T06:50:22;12.65;;;6.32;;
47804;SDS011;33568;45.286;9.900;2023-07-20T06:52:49;12.68;;;5.65;;
47804;SDS011;33568;45.286;9.900;2023-07-20T06:55:15;11.90;;;5.78;;
47804;SDS011;33568;45.286;9.900;2023-07-20T06:57:42;9.25;;;5.25;;
47804;SDS011;33568;45.286;9.900;2023-07-20T07:00:09;10.93;;;5.57;;
47804;SDS011;33568;45.286;9.900;2023-07-20T07:02:35;7.63;;;5.32;;
47804;SDS011;33568;45.286;9.900;2023-07-20T07:05:02;14.30;;;6.10;;
47804;SDS011;33568;45.286;9.900;2023-07-20T07:07:30;8.15;;;5.22;;
47804;SDS011;33568;45.286;9.900;2023-07-20T07:09:57;10.98;;;6.15;;
47804;SDS011;33568;45.286;9.900;2023-07-20T07:12:23;11.77;;;5.68;;
47804;SDS011;33568;45.286;9.900;2023-07-20T07:14:50;9.57;;;5.18;;
47804;SDS011;33568;45.286;9.900;2023-07-20T07:17:16;11.90;;;6.30;;
47804;SDS011;33568;45.286;9.900;2023-07-20T07:19:43;12.32;;;5.82;;
47804;SDS011;33568;45.286;9.900;2023-07-20T07:22:10;16.05;;;5.15;;
47804;SDS011;33568;45.286;9.900;2023-07-20T07:24:37;7.50;;;4.82;;
47804;SDS011;33568;45.286;9.900;2023-07-20T07:27:04;11.90;;;5.47;;
47804;SDS011;33568;45.286;9.900;2023-07-20T07:29:30;9.63;;;5.85;;
47804;SDS011;33568;45.286;9.900;2023-07-20T07:31:57;10.75;;;6.53;;
47804;SDS011;33568;45.286;9.900;2023-07-20T07:34:24;8.07;;;5.22;;
47804;SDS011;33568;45.286;9.900;2023-07-20T07:36:50;11.95;;;4.88;;
47804;SDS011;33568;45.286;9.900;2023-07-20T07:39:17;13.65;;;5.88;;
47804;SDS011;33568;45.286;9.900;2023-07-20T07:41:44;10.32;;;4.97;;
47804;SDS011;33568;45.286;9.900;2023-07-20T07:44:10;10.27;;;4.82;;
47804;SDS011;33568;45.286;9.900;2023-07-20T07:46:37;14.40;;;5.95;;
47804;SDS011;33568;45.286;9.900;2023-07-20T07:49:04;12.55;;;5.50;;
47804;SDS011;33568;45.286;9.900;2023-07-20T07:51:30;17.90;;;5.63;;
47804;SDS011;33568;45.286;9.900;2023-07-20T07:53:57;6.65;;;4.57;;
47804;SDS011;33568;45.286;9.900;2023-07-20T07:56:23;8.18;;;4.30;;
47804;SDS011;33568;45.286;9.900;2023-07-20T07:58:50;6.88;;;4.38;;
47804;SDS011;33568;45.286;9.900;2023-07-20T08:01:19;10.35;;;4.32;;
47804;SDS011;33568;45.286;9.900;2023-07-20T08:03:46;6.32;;;3.75;;
47804;SDS011;33568;45.286;9.900;2023-07-20T08:06:13;11.95;;;6.00;;
47804;SDS011;33568;45.286;9.900;2023-07-20T08:08:40;6.97;;;4.00;;
47804;SDS011;33568;45.286;9.900;2023-07-20T08:11:08;8.80;;;4.07;;
47804;SDS011;33568;45.286;9.900;2023-07-20T08:13:37;14.80;;;6.65;;
47804;SDS011;33568;45.286;9.900;2023-07-20T08:16:04;7.03;;;3.97;;
47804;SDS011;33568;45.286;9.900;2023-07-20T08:18:30;8.20;;;4.35;;
47804;SDS011;33568;45.286;9.900;2023-07-20T08:20:57;12.05;;;5.07;;
47804;SDS011;33568;45.286;9.900;2023-07-20T08:23:23;8.35;;;4.97;;
47804;SDS011;33568;45.286;9.900;2023-07-20T08:25:50;7.18;;;3.70;;
47804;SDS011;33568;45.286;9.900;2023-07-20T08:28:16;7.70;;;4.32;;
47804;SDS011;33568;45.286;9.900;2023-07-20T08:30:43;12.50;;;5.50;;
47804;SDS011;33568;45.286;9.900;2023-07-20T08:33:15;11.43;;;3.92;;
47804;SDS011;33568;45.286;9.900;2023-07-20T08:35:45;9.68;;;4.68;;
47804;SDS011;33568;45.286;9.900;2023-07-20T08:38:12;9.05;;;4.60;;
47804;SDS011;33568;45.286;9.900;2023-07-20T08:40:43;5.22;;;3.90;;
47804;SDS011;33568;45.286;9.900;2023-07-20T08:43:11;8.73;;;4.28;;
47804;SDS011;33568;45.286;9.900;2023-07-20T08:45:39;10.98;;;6.07;;
47804;SDS011;33568;45.286;9.900;2023-07-20T08:48:07;6.43;;;4.43;;
47804;SDS011;33568;45.286;9.900;2023-07-20T08:50:35;8.52;;;5.10;;
47804;SDS011;33568;45.286;9.900;2023-07-20T08:53:01;10.77;;;4.32;;
47804;SDS011;33568;45.286;9.900;2023-07-20T08:55:29;9.52;;;4.78;;
47804;SDS011;33568;45.286;9.900;2023-07-20T08:57:57;8.02;;;4.00;;
47804;SDS011;33568;45.286;9.900;2023-07-20T09:00:25;14.18;;;5.47;;
47804;SDS011;33568;45.286;9.900;2023-07-20T09:02:53;8.40;;;4.93;;
47804;SDS011;33568;45.286;9.900;2023-07-20T09:05:20;8.80;;;4.13;;
47804;SDS011;33568;45.286;9.900;2023-07-20T09:07:48;7.20;;;4.30;;
47804;SDS011;33568;45.286;9.900;2023-07-20T09:10:15;5.53;;;3.90;;
47804;SDS011;33568;45.286;9.900;2023-07-20T09:12:42;11.00;;;5.13;;
47804;SDS011;33568;45.286;9.900;2023-07-20T09:15:10;9.32;;;5.57;;
47804;SDS011;33568;45.286;9.900;2023-07-20T09:17:37;10.20;;;4.55;;
47804;SDS011;33568;45.286;9.900;2023-07-20T09:20:05;7.88;;;4.15;;
47804;SDS011;33568;45.286;9.900;2023-07-20T09:22:34;6.53;;;4.13;;
47804;SDS011;33568;45.286;9.900;2023-07-20T09:25:01;9.50;;;5.60;;
47804;SDS011;33568;45.286;9.900;2023-07-20T09:27:40;9.90;;;3.80;;
47804;SDS011;33568;45.286;9.900;2023-07-20T09:30:08;12.77;;;4.40;;
47804;SDS011;33568;45.286;9.900;2023-07-20T09:32:41;8.77;;;4.03;;
47804;SDS011;33568;45.286;9.900;2023-07-20T09:35:18;13.60;;;5.13;;
47804;SDS011;33568;45.286;9.900;2023-07-20T09:37:55;9.02;;;5.43;;
47804;SDS011;33568;45.286;9.900;2023-07-20T09:40:25;18.80;;;6.70;;
47804;SDS011;33568;45.286;9.900;2023-07-20T09:42:53;11.38;;;6.60;;
47804;SDS011;33568;45.286;9.900;2023-07-20T09:45:30;9.52;;;5.88;;
47804;SDS011;33568;45.286;9.900;2023-07-20T09:48:04;10.52;;;5.22;;
47804;SDS011;33568;45.286;9.900;2023-07-20T09:50:32;9.63;;;5.15;;
47804;SDS011;33568;45.286;9.900;2023-07-20T09:53:00;12.73;;;4.75;;
47804;SDS011;33568;45.286;9.900;2023-07-20T09:55:30;10.52;;;6.05;;
47804;SDS011;33568;45.286;9.900;2023-07-20T09:57:57;10.07;;;5.75;;
47804;SDS011;33568;45.286;9.900;2023-07-20T10:00:25;19.60;;;5.85;;
47804;SDS011;33568;45.286;9.900;2023-07-20T10:02:51;12.35;;;4.97;;
47804;SDS011;33568;45.286;9.900;2023-07-20T10:05:19;9.93;;;6.75;;
47804;SDS011;33568;45.286;9.900;2023-07-20T10:07:47;10.05;;;5.95;;
47804;SDS011;33568;45.286;9.900;2023-07-20T10:10:16;13.52;;;5.80;;
47804;SDS011;33568;45.286;9.900;2023-07-20T10:12:46;13.88;;;6.05;;
47804;SDS011;33568;45.286;9.900;2023-07-20T10:15:28;10.93;;;6.05;;
47804;SDS011;33568;45.286;9.900;2023-07-20T10:20:46;18.08;;;6.65;;
47804;SDS011;33568;45.286;9.900;2023-07-20T10:23:12;9.13;;;6.00;;
47804;SDS011;33568;45.286;9.900;2023-07-20T10:25:39;10.77;;;5.95;;
47804;SDS011;33568;45.286;9.900;2023-07-20T10:28:08;12.82;;;5.45;;
47804;SDS011;33568;45.286;9.900;2023-07-20T10:30:37;12.55;;;5.78;;
47804;SDS011;33568;45.286;9.900;2023-07-20T10:33:04;13.25;;;6.30;;
47804;SDS011;33568;45.286;9.900;2023-07-20T10:35:50;13.02;;;5.47;;
47804;SDS011;33568;45.286;9.900;2023-07-20T10:40:46;12.55;;;6.40;;
47804;SDS011;33568;45.286;9.900;2023-07-20T10:43:20;14.10;;;5.70;;
47804;SDS011;33568;45.286;9.900;2023-07-20T10:45:48;14.73;;;6.20;;
47804;SDS011;33568;45.286;9.900;2023-07-20T10:48:20;13.18;;;6.13;;
47804;SDS011;33568;45.286;9.900;2023-07-20T10:51:11;17.73;;;6.25;;
47804;SDS011;33568;45.286;9.900;2023-07-20T10:53:41;9.98;;;5.38;;
47804;SDS011;33568;45.286;9.900;2023-07-20T10:56:08;13.23;;;5.60;;
47804;SDS011;33568;45.286;9.900;2023-07-20T10:58:40;8.60;;;5.43;;
47804;SDS011;33568;45.286;9.900;2023-07-20T11:01:08;9.52;;;4.63;;
47804;SDS011;33568;45.286;9.900;2023-07-20T11:03:39;8.13;;;5.03;;
47804;SDS011;33568;45.286;9.900;2023-07-20T11:08:55;12.52;;;5.85;;
47804;SDS011;33568;45.286;9.900;2023-07-20T11:11:23;11.93;;;5.80;;
47804;SDS011;33568;45.286;9.900;2023-07-20T11:19:05;16.40;;;6.18;;
47804;SDS011;33568;45.286;9.900;2023-07-20T11:21:39;12.07;;;6.03;;
47804;SDS011;33568;45.286;9.900;2023-07-20T11:24:07;13.75;;;5.78;;
47804;SDS011;33568;45.286;9.900;2023-07-20T11:26:53;13.20;;;5.65;;
47804;SDS011;33568;45.286;9.900;2023-07-20T11:29:21;9.43;;;5.03;;
47804;SDS011;33568;45.286;9.900;2023-07-20T11:31:49;15.43;;;5.68;;
47804;SDS011;33568;45.286;9.900;2023-07-20T11:34:17;11.30;;;4.68;;
47804;SDS011;33568;45.286;9.900;2023-07-20T11:36:46;8.65;;;4.50;;
47804;SDS011;33568;45.286;9.900;2023-07-20T11:39:17;12.45;;;5.28;;
47804;SDS011;33568;45.286;9.900;2023-07-20T11:44:22;8.68;;;4.47;;
47804;SDS011;33568;45.286;9.900;2023-07-20T11:47:05;6.78;;;4.60;;
47804;SDS011;33568;45.286;9.900;2023-07-20T11:49:35;9.18;;;5.20;;
47804;SDS011;33568;45.286;9.900;2023-07-20T11:52:04;8.57;;;5.15;;
47804;SDS011;33568;45.286;9.900;2023-07-20T11:54:33;14.10;;;6.00;;
47804;SDS011;33568;45.286;9.900;2023-07-20T11:57:06;10.52;;;5.88;;
47804;SDS011;33568;45.286;9.900;2023-07-20T11:59:33;11.25;;;5.40;;
47804;SDS011;33568;45.286;9.900;2023-07-20T12:02:02;11.38;;;5.35;;
47804;SDS011;33568;45.286;9.900;2023-07-20T12:04:30;17.33;;;6.03;;
47804;SDS011;33568;45.286;9.900;2023-07-20T12:06:58;15.50;;;5.63;;
47804;SDS011;33568;45.286;9.900;2023-07-20T12:09:25;13.48;;;5.22;;
47804;SDS011;33568;45.286;9.900;2023-07-20T12:11:51;14.93;;;5.57;;
47804;SDS011;33568;45.286;9.900;2023-07-20T12:14:17;13.73;;;5.25;;
47804;SDS011;33568;45.286;9.900;2023-07-20T12:16:44;12.80;;;5.43;;
47804;SDS011;33568;45.286;9.900;2023-07-20T12:19:19;13.95;;;5.30;;
47804;SDS011;33568;45.286;9.900;2023-07-20T12:21:45;12.10;;;4.80;;
47804;SDS011;33568;45.286;9.900;2023-07-20T12:24:12;6.68;;;4.43;;
47804;SDS011;33568;45.286;9.900;2023-07-20T12:26:38;12.85;;;5.55;;
47804;SDS011;33568;45.286;9.900;2023-07-20T12:29:05;15.90;;;4.80;;
47804;SDS011;33568;45.286;9.900;2023-07-20T12:31:33;8.60;;;4.47;;
47804;SDS011;33568;45.286;9.900;2023-07-20T12:34:02;12.55;;;5.00;;
47804;SDS011;33568;45.286;9.900;2023-07-20T12:36:29;11.50;;;4.65;;
47804;SDS011;33568;45.286;9.900;2023-07-20T12:38:57;13.38;;;5.10;;
47804;SDS011;33568;45.286;9.900;2023-07-20T12:41:24;10.15;;;4.90;;
47804;SDS011;33568;45.286;9.900;2023-07-20T12:43:50;11.02;;;4.80;;
47804;SDS011;33568;45.286;9.900;2023-07-20T12:46:17;9.93;;;5.25;;
47804;SDS011;33568;45.286;9.900;2023-07-20T12:48:43;9.68;;;5.00;;
47804;SDS011;33568;45.286;9.900;2023-07-20T12:51:11;9.85;;;4.50;;
47804;SDS011;33568;45.286;9.900;2023-07-20T12:53:37;7.28;;;4.40;;
47804;SDS011;33568;45.286;9.900;2023-07-20T12:56:04;9.05;;;4.53;;
47804;SDS011;33568;45.286;9.900;2023-07-20T12:58:31;9.57;;;4.35;;
47804;SDS011;33568;45.286;9.900;2023-07-20T13:00:58;11.77;;;4.47;;
47804;SDS011;33568;45.286;9.900;2023-07-20T13:03:24;15.15;;;4.63;;
47804;SDS011;33568;45.286;9.900;2023-07-20T13:05:51;8.95;;;4.78;;
47804;SDS011;33568;45.286;9.900;2023-07-20T13:08:18;12.80;;;5.05;;
47804;SDS011;33568;45.286;9.900;2023-07-20T13:10:45;12.90;;;4.70;;
47804;SDS011;33568;45.286;9.900;2023-07-20T13:13:12;6.45;;;3.80;;
47804;SDS011;33568;45.286;9.900;2023-07-20T13:15:42;9.55;;;4.85;;
47804;SDS011;33568;45.286;9.900;2023-07-20T13:18:10;11.93;;;4.88;;
47804;SDS011;33568;45.286;9.900;2023-07-20T13:20:36;9.48;;;3.92;;
47804;SDS011;33568;45.286;9.900;2023-07-20T13:23:04;9.40;;;4.72;;
47804;SDS011;33568;45.286;9.900;2023-07-20T13:25:30;18.90;;;5.25;;
47804;SDS011;33568;45.286;9.900;2023-07-20T13:27:57;7.70;;;4.53;;
47804;SDS011;33568;45.286;9.900;2023-07-20T13:30:24;21.45;;;5.18;;
47804;SDS011;33568;45.286;9.900;2023-07-20T13:32:50;17.38;;;5.65;;
47804;SDS011;33568;45.286;9.900;2023-07-20T13:35:17;13.13;;;5.70;;
47804;SDS011;33568;45.286;9.900;2023-07-20T13:37:43;16.98;;;6.00;;
47804;SDS011;33568;45.286;9.900;2023-07-20T13:40:10;17.88;;;6.65;;
47804;SDS011;33568;45.286;9.900;2023-07-20T13:42:39;16.63;;;6.05;;
47804;SDS011;33568;45.286;9.900;2023-07-20T13:45:09;16.33;;;6.38;;
47804;SDS011;33568;45.286;9.900;2023-07-20T13:47:35;15.90;;;5.63;;
47804;SDS011;33568;45.286;9.900;2023-07-20T13:50:02;10.10;;;5.32;;
47804;SDS011;33568;45.286;9.900;2023-07-20T13:52:29;11.38;;;5.22;;
47804;SDS011;33568;45.286;9.900;2023-07-20T13:54:55;13.40;;;5.65;;
47804;SDS011;33568;45.286;9.900;2023-07-20T13:57:22;13.27;;;5.80;;
47804;SDS011;33568;45.286;9.900;2023-07-20T13:59:48;17.08;;;5.55;;
47804;SDS011;33568;45.286;9.900;2023-07-20T14:02:15;11.07;;;4.50;;
47804;SDS011;33568;45.286;9.900;2023-07-20T14:04:42;15.20;;;5.70;;
47804;SDS011;33568;45.286;9.900;2023-07-20T14:07:08;14.05;;;5.57;;
47804;SDS011;33568;45.286;9.900;2023-07-20T14:09:35;18.15;;;5.78;;
47804;SDS011;33568;45.286;9.900;2023-07-20T14:12:01;15.48;;;5.90;;
47804;SDS011;33568;45.286;9.900;2023-07-20T14:14:28;11.32;;;5.45;;
47804;SDS011;33568;45.286;9.900;2023-07-20T14:16:54;13.35;;;5.50;;
47804;SDS011;33568;45.286;9.900;2023-07-20T14:19:22;18.25;;;5.75;;
47804;SDS011;33568;45.286;9.900;2023-07-20T14:21:48;13.63;;;5.78;;
47804;SDS011;33568;45.286;9.900;2023-07-20T14:24:15;11.52;;;5.10;;
47804;SDS011;33568;45.286;9.900;2023-07-20T14:26:41;15.30;;;5.47;;
47804;SDS011;33568;45.286;9.900;2023-07-20T14:29:08;10.25;;;4.97;;
47804;SDS011;33568;45.286;9.900;2023-07-20T14:31:34;11.07;;;5.35;;
47804;SDS011;33568;45.286;9.900;2023-07-20T14:34:01;10.73;;;5.28;;
47804;SDS011;33568;45.286;9.900;2023-07-20T14:36:27;9.20;;;5.22;;
47804;SDS011;33568;45.286;9.900;2023-07-20T14:38:54;13.57;;;5.40;;
47804;SDS011;33568;45.286;9.900;2023-07-20T14:41:20;13.63;;;5.47;;
47804;SDS011;33568;45.286;9.900;2023-07-20T14:43:47;11.43;;;4.97;;
47804;SDS011;33568;45.286;9.900;2023-07-20T14:46:14;13.13;;;5.00;;
47804;SDS011;33568;45.286;9.900;2023-07-20T14:48:40;10.80;;;4.82;;
47804;SDS011;33568;45.286;9.900;2023-07-20T14:51:07;8.02;;;4.63;;
47804;SDS011;33568;45.286;9.900;2023-07-20T14:53:33;12.52;;;4.40;;
47804;SDS011;33568;45.286;9.900;2023-07-20T14:56:00;13.88;;;4.90;;
47804;SDS011;33568;45.286;9.900;2023-07-20T14:58:27;17.33;;;5.55;;
47804;SDS011;33568;45.286;9.900;2023-07-20T15:00:54;7.75;;;4.32;;
47804;SDS011;33568;45.286;9.900;2023-07-20T15:03:20;16.00;;;5.47;;
47804;SDS011;33568;45.286;9.900;2023-07-20T15:05:47;11.52;;;4.72;;
47804;SDS011;33568;45.286;9.900;2023-07-20T15:08:13;12.35;;;4.47;;
47804;SDS011;33568;45.286;9.900;2023-07-20T15:10:40;10.65;;;4.78;;
47804;SDS011;33568;45.286;9.900;2023-07-20T15:13:06;8.10;;;4.72;;